Austin, Texas
Traffic Map
Current Weather Conditions
Austin, Texas
Broken Clouds
Broken Clouds
73°
Feels Like: 73°
Wind Chill: 73° Ceiling: 4500
Heat Index: 73° Visibility: 10mi
Dew Point: 54° Wind: 6mph
Humidity: 51% Direction: ° ()
Pressure: 29.85in Gusts: 0mph
Raw Report DataKATT 142251Z AUTO VRB05KT 10SM BKN045 23/12 A2985 RMK AO2 SLP100 T02280122
Traffic Incident Summary
Active as of:
Severity:
Category:
InformationThere was an issue retrieving the traffic information for this location. Please try a different location or try again shortly.
Advertisements
Track Severe Weather on mobile